Time;durP1;ratioP1;P1;durP2;ratioP2;P2;SDS_P1;SDS_P2;PMS_P1;PMS_P2;Temp;Humidity;BMP_temperature;BMP_pressure;BME280_temperature;BME280_humidity;BME280_pressure;Samples;Min_cycle;Max_cycle;Signal;HPM_P1;HPM_P2
2023/04/22 00:01:23;;;;;;;13.50;6.68;;;;;;;9.06;73.57;100901.88;4916425;29;20108;-72
2023/04/22 00:03:50;;;;;;;15.52;6.60;;;;;;;9.03;73.29;100908.38;4916578;29;20056;-72
2023/04/22 00:06:17;;;;;;;9.75;5.68;;;;;;;9.01;73.60;100893.44;4916493;29;20044;-72
2023/04/22 00:08:44;;;;;;;13.25;6.25;;;;;;;9.02;73.85;100897.78;4916966;29;20052;-72
2023/04/22 00:11:10;;;;;;;8.68;5.93;;;;;;;9.01;73.96;100893.44;4910834;29;20050;-72
2023/04/22 00:13:37;;;;;;;10.45;6.57;;;;;;;8.95;74.59;100894.84;4914413;29;20060;-72
2023/04/22 00:16:04;;;;;;;12.13;6.45;;;;;;;8.97;74.23;100881.34;4917785;29;20476;-72
2023/04/22 00:18:33;;;;;;;14.60;6.72;;;;;;;8.91;74.50;100868.53;4917637;29;20059;-72
2023/04/22 00:21:00;;;;;;;11.65;6.47;;;;;;;8.92;74.04;100876.44;4915834;29;20413;-72
2023/04/22 00:23:27;;;;;;;11.43;6.43;;;;;;;8.88;74.31;100867.00;4916971;29;20115;-72
2023/04/22 00:25:53;;;;;;;11.25;6.30;;;;;;;8.89;74.32;100868.69;4915712;29;20144;-72
2023/04/22 00:28:20;;;;;;;16.02;6.45;;;;;;;8.87;75.00;100864.47;4917158;29;20056;-72
2023/04/22 00:30:46;;;;;;;15.85;6.97;;;;;;;8.82;74.85;100870.28;4916499;29;20424;-71
2023/04/22 00:33:13;;;;;;;12.75;6.43;;;;;;;8.77;74.99;100868.00;4916169;29;20055;-72
2023/04/22 00:35:40;;;;;;;13.50;6.47;;;;;;;8.78;75.34;100859.03;4914564;29;20277;-72
2023/04/22 00:38:07;;;;;;;13.30;6.35;;;;;;;8.80;74.77;100861.53;4915510;29;20476;-72
2023/04/22 00:40:33;;;;;;;12.40;5.97;;;;;;;8.77;74.01;100859.97;4915317;29;20046;-71
2023/04/22 00:43:01;;;;;;;15.50;6.85;;;;;;;8.77;74.93;100854.63;4914707;29;20079;-72
2023/04/22 00:45:29;;;;;;;11.90;5.97;;;;;;;8.70;75.19;100856.22;4914969;29;20055;-72
2023/04/22 00:47:56;;;;;;;11.52;6.43;;;;;;;8.67;75.47;100855.66;4914927;29;20056;-72
2023/04/22 00:50:23;;;;;;;11.85;6.03;;;;;;;8.67;75.80;100851.13;4915102;29;20044;-72
2023/04/22 00:52:50;;;;;;;16.23;6.13;;;;;;;8.65;76.45;100852.28;4896705;29;20076;-72
2023/04/22 00:55:17;;;;;;;11.57;6.40;;;;;;;8.61;77.08;100852.59;4895488;29;20048;-72
2023/04/22 00:57:43;;;;;;;11.20;6.70;;;;;;;8.64;76.61;100851.44;4895677;29;20052;-72
2023/04/22 01:00:10;;;;;;;11.38;5.72;;;;;;;8.61;77.23;100849.91;4896022;29;20048;-72
2023/04/22 01:02:37;;;;;;;10.68;6.55;;;;;;;8.54;77.45;100848.81;4891106;29;20053;-73
2023/04/22 01:08:51;;;;;;;10.55;6.25;;;;;;;8.48;79.26;100841.34;4895147;29;20051;-71
2023/04/22 01:11:17;;;;;;;12.05;6.38;;;;;;;8.45;80.66;100841.63;4895939;29;20422;-72
2023/04/22 01:13:44;;;;;;;8.75;5.93;;;;;;;8.45;80.50;100846.97;4896122;29;20052;-72
2023/04/22 01:16:11;;;;;;;13.75;6.47;;;;;;;8.41;80.61;100840.22;4896257;29;20056;-72
2023/04/22 01:18:38;;;;;;;13.23;6.20;;;;;;;8.42;81.97;100839.25;4896167;29;20052;-71
2023/04/22 01:21:05;;;;;;;10.48;5.95;;;;;;;8.39;81.47;100842.19;4896756;29;20482;-71
2023/04/22 01:23:32;;;;;;;18.08;7.25;;;;;;;8.32;82.54;100830.38;4895776;29;20128;-71
2023/04/22 01:25:59;;;;;;;14.63;6.35;;;;;;;8.27;83.36;100832.66;4895785;29;20048;-71
2023/04/22 01:28:26;;;;;;;10.57;6.57;;;;;;;8.22;84.50;100835.75;4895371;29;20127;-71
2023/04/22 01:30:53;;;;;;;13.15;6.75;;;;;;;8.20;85.08;100842.22;4896000;29;20056;-70
2023/04/22 01:33:19;;;;;;;14.88;7.32;;;;;;;8.13;85.99;100833.94;4897288;29;20056;-71
2023/04/22 01:35:46;;;;;;;13.75;6.43;;;;;;;8.07;87.81;100832.66;4898592;29;20051;-73
2023/04/22 01:38:13;;;;;;;17.98;7.25;;;;;;;8.09;87.75;100833.38;4899188;29;20048;-71
2023/04/22 01:40:39;;;;;;;11.35;7.15;;;;;;;8.04;87.90;100832.94;4899231;29;20052;-72
2023/04/22 01:43:06;;;;;;;15.80;7.60;;;;;;;8.01;89.35;100830.53;4900048;29;20461;-73
2023/04/22 01:45:32;;;;;;;14.85;6.65;;;;;;;8.03;90.04;100827.75;4899137;29;20077;-72
2023/04/22 01:47:59;;;;;;;12.23;6.97;;;;;;;7.98;90.31;100821.97;4898808;29;20104;-70
2023/04/22 01:50:26;;;;;;;13.90;6.82;;;;;;;7.94;91.00;100825.91;4898857;29;20072;-70
2023/04/22 01:52:52;;;;;;;9.73;6.15;;;;;;;7.92;92.06;100819.88;4916112;29;20052;-71
2023/04/22 01:55:19;;;;;;;10.77;6.90;;;;;;;7.83;93.93;100816.19;4917133;29;20055;-72
2023/04/22 01:57:46;;;;;;;13.35;7.18;;;;;;;7.78;93.45;100810.44;4918647;29;20421;-70
2023/04/22 02:00:12;;;;;;;13.45;6.97;;;;;;;7.75;95.25;100810.72;4902094;29;20119;-70
2023/04/22 02:02:39;;;;;;;11.80;6.80;;;;;;;7.66;96.45;100799.84;4918642;29;20078;-71
2023/04/22 02:05:07;;;;;;;15.48;7.65;;;;;;;7.68;97.74;100804.25;4919251;29;20052;-71
2023/04/22 02:07:35;;;;;;;18.00;7.47;;;;;;;7.60;97.31;100803.09;4919849;29;20048;-70
2023/04/22 02:10:03;;;;;;;17.40;8.13;;;;;;;7.60;97.20;100802.25;4915166;29;20416;-71
2023/04/22 02:12:31;;;;;;;21.17;6.82;;;;;;;7.64;96.96;100801.84;4917510;29;20135;-71
2023/04/22 02:14:57;;;;;;;12.25;7.00;;;;;;;7.58;98.61;100798.88;4917019;29;20143;-71
2023/04/22 02:17:24;;;;;;;14.27;7.32;;;;;;;7.60;97.58;100795.09;4917122;29;20048;-70
2023/04/22 02:19:50;;;;;;;10.85;7.05;;;;;;;7.56;97.59;100791.00;4917800;29;20052;-71
2023/04/22 02:22:18;;;;;;;15.02;7.45;;;;;;;7.49;98.48;100787.19;4917510;29;20044;-70
2023/04/22 02:24:45;;;;;;;9.80;6.60;;;;;;;7.50;98.50;100786.22;4916915;29;20116;-70
2023/04/22 02:27:11;;;;;;;22.50;7.22;;;;;;;7.44;99.90;100789.44;4917249;29;20052;-71
2023/04/22 02:29:38;;;;;;;12.57;6.93;;;;;;;7.46;98.78;100783.97;4916712;29;20052;-72
2023/04/22 02:32:05;;;;;;;17.95;7.68;;;;;;;7.46;99.04;100784.78;4918036;29;20476;-70
2023/04/22 02:34:31;;;;;;;18.17;7.05;;;;;;;7.36;100.00;100776.81;4911787;29;20058;-71
2023/04/22 02:36:58;;;;;;;12.52;7.22;;;;;;;7.38;100.00;100781.97;4918013;29;20493;-71
2023/04/22 02:39:24;;;;;;;14.73;7.22;;;;;;;7.37;100.00;100778.47;4917966;29;20047;-72
2023/04/22 02:41:51;;;;;;;14.18;7.63;;;;;;;7.34;100.00;100775.25;4917780;29;20490;-72
2023/04/22 02:44:17;;;;;;;13.45;7.40;;;;;;;7.28;100.00;100779.28;4916595;29;20056;-72
2023/04/22 02:46:44;;;;;;;13.82;7.32;;;;;;;7.33;100.00;100777.06;4918218;29;20044;-72
2023/04/22 02:49:11;;;;;;;12.35;7.25;;;;;;;7.31;100.00;100775.50;4914233;29;20044;-71
2023/04/22 02:51:38;;;;;;;19.33;7.22;;;;;;;7.19;100.00;100770.31;4912799;29;20486;-72
2023/04/22 02:54:04;;;;;;;13.23;7.18;;;;;;;7.19;100.00;100774.81;4918387;29;20477;-72
2023/04/22 02:56:31;;;;;;;16.05;6.85;;;;;;;7.15;100.00;100774.22;4917196;29;20048;-72
2023/04/22 02:58:57;;;;;;;12.73;6.78;;;;;;;7.17;100.00;100769.59;4917883;29;20058;-72
2023/04/22 03:01:24;;;;;;;13.18;7.03;;;;;;;7.10;100.00;100776.44;4916114;29;20393;-71
2023/04/22 03:03:51;;;;;;;13.30;7.13;;;;;;;7.13;100.00;100773.50;4916104;29;20382;-71
2023/04/22 03:06:18;;;;;;;12.23;6.57;;;;;;;7.09;100.00;100777.44;4917058;29;20290;-72
2023/04/22 03:08:44;;;;;;;14.75;7.10;;;;;;;7.05;100.00;100775.16;4916797;29;20523;-72
2023/04/22 03:11:12;;;;;;;14.40;7.40;;;;;;;7.09;100.00;100773.94;4916735;29;20488;-72
2023/04/22 03:13:39;;;;;;;13.02;7.60;;;;;;;7.06;100.00;100776.88;4916656;29;20051;-72
2023/04/22 03:16:06;;;;;;;11.07;6.60;;;;;;;6.92;100.00;100770.09;4918156;29;20051;-72
2023/04/22 03:18:32;;;;;;;13.55;7.90;;;;;;;6.95;100.00;100769.81;4916102;29;20519;-71
2023/04/22 03:20:59;;;;;;;13.25;6.85;;;;;;;6.87;100.00;100769.63;4916789;29;20081;-71
2023/04/22 03:23:26;;;;;;;19.17;7.55;;;;;;;6.89;100.00;100770.34;4917746;29;20048;-71
2023/04/22 03:25:52;;;;;;;11.70;6.95;;;;;;;6.81;100.00;100768.38;4916939;29;20056;-72
2023/04/22 03:28:19;;;;;;;17.40;7.45;;;;;;;6.77;100.00;100766.09;4918493;29;20103;-73
2023/04/22 03:30:46;;;;;;;11.82;7.10;;;;;;;6.76;100.00;100772.41;4918062;29;20075;-72
2023/04/22 03:33:12;;;;;;;16.60;7.55;;;;;;;6.74;100.00;100766.34;4909656;29;20112;-71
2023/04/22 03:35:39;;;;;;;13.65;7.38;;;;;;;6.71;100.00;100767.47;4918031;29;20060;-72
2023/04/22 03:38:05;;;;;;;17.73;7.68;;;;;;;6.69;100.00;100769.41;4919120;29;20461;-71
2023/04/22 03:40:32;;;;;;;12.40;6.88;;;;;;;6.68;100.00;100763.25;4918578;29;20127;-71
2023/04/22 03:42:58;;;;;;;14.25;7.50;;;;;;;6.66;100.00;100769.69;4918596;29;20497;-72
2023/04/22 03:45:25;;;;;;;17.27;7.40;;;;;;;6.72;100.00;100774.50;4918698;29;20048;-71
2023/04/22 03:47:52;;;;;;;19.73;7.93;;;;;;;6.61;100.00;100772.75;4917686;29;20436;-71
2023/04/22 03:50:18;;;;;;;16.77;7.65;;;;;;;6.55;100.00;100772.44;4918078;29;20301;-71
2023/04/22 03:52:45;;;;;;;15.63;6.90;;;;;;;6.54;100.00;100771.59;4917877;29;20055;-72
2023/04/22 03:55:11;;;;;;;22.63;7.78;;;;;;;6.57;100.00;100774.00;4917427;29;20052;-72
2023/04/22 03:57:38;;;;;;;15.93;7.45;;;;;;;6.51;100.00;100771.03;4918262;29;20052;-70
2023/04/22 04:00:05;;;;;;;16.02;7.45;;;;;;;6.46;100.00;100772.28;4918459;29;20064;-71
2023/04/22 04:02:31;;;;;;;17.15;8.70;;;;;;;6.42;100.00;100768.16;4917599;29;20048;-71
2023/04/22 04:04:58;;;;;;;17.58;7.60;;;;;;;6.38;100.00;100765.91;4918746;29;20048;-71
2023/04/22 04:07:25;;;;;;;17.15;7.90;;;;;;;6.42;100.00;100767.31;4916920;29;20071;-71
2023/04/22 04:09:52;;;;;;;19.10;7.43;;;;;;;6.40;100.00;100769.28;4917661;29;20056;-71
2023/04/22 04:12:18;;;;;;;16.48;8.07;;;;;;;6.43;100.00;100769.03;4917721;29;20096;-71
2023/04/22 04:14:45;;;;;;;15.80;7.60;;;;;;;6.32;100.00;100761.97;4916862;29;20052;-73
2023/04/22 04:17:12;;;;;;;15.88;7.95;;;;;;;6.24;100.00;100762.56;4906464;29;20058;-72
2023/04/22 04:19:39;;;;;;;16.95;8.43;;;;;;;6.23;100.00;100763.56;4916789;29;20051;-71
2023/04/22 04:22:06;;;;;;;13.60;7.80;;;;;;;6.25;100.00;100766.06;4917546;29;20661;-71
2023/04/22 04:24:35;;;;;;;16.48;8.38;;;;;;;6.21;100.00;100772.63;4917600;29;20107;-73
2023/04/22 04:27:02;;;;;;;16.23;7.40;;;;;;;6.24;100.00;100772.38;4917011;29;20048;-71
2023/04/22 04:29:28;;;;;;;20.23;8.38;;;;;;;6.21;100.00;100768.16;4917532;29;20056;-71
2023/04/22 04:31:55;;;;;;;16.20;8.30;;;;;;;6.27;100.00;100772.16;4916743;29;20052;-70
2023/04/22 04:34:21;;;;;;;16.98;8.23;;;;;;;6.24;100.00;100767.06;4916728;29;20056;-70
2023/04/22 04:36:48;;;;;;;22.83;8.60;;;;;;;6.23;100.00;100768.88;4917536;29;20052;-70
2023/04/22 04:39:17;;;;;;;14.18;8.35;;;;;;;6.30;100.00;100765.72;4917238;29;20055;-72
2023/04/22 04:41:44;;;;;;;18.15;7.47;;;;;;;6.20;100.00;100774.47;4916799;29;20146;-70
2023/04/22 04:44:11;;;;;;;21.80;8.40;;;;;;;6.22;100.00;100763.69;4916505;29;20044;-71
2023/04/22 04:46:37;;;;;;;26.40;9.90;;;;;;;6.22;100.00;100766.34;4915827;29;20116;-70
2023/04/22 04:49:04;;;;;;;18.02;8.95;;;;;;;6.31;100.00;100765.59;4917994;29;20052;-71
2023/04/22 04:51:33;;;;;;;17.25;7.53;;;;;;;6.46;100.00;100769.63;4917290;29;20054;-71
2023/04/22 04:54:00;;;;;;;19.48;8.52;;;;;;;6.50;100.00;100774.69;4916747;29;20048;-71
2023/04/22 04:56:26;;;;;;;19.63;9.02;;;;;;;6.60;100.00;100772.88;4908191;29;20072;-70
2023/04/22 04:58:53;;;;;;;12.85;7.97;;;;;;;6.67;100.00;100771.41;4917168;29;20056;-71
2023/04/22 05:01:19;;;;;;;14.32;8.02;;;;;;;6.67;100.00;100772.25;4868594;29;20048;-71
2023/04/22 05:03:46;;;;;;;16.08;8.02;;;;;;;6.94;100.00;100770.78;4917160;29;20056;-72
2023/04/22 05:06:13;;;;;;;32.25;8.77;;;;;;;7.02;100.00;100764.78;4918110;29;20055;-72
2023/04/22 05:08:39;;;;;;;15.73;8.25;;;;;;;7.09;100.00;100769.44;4919989;29;20052;-71
2023/04/22 05:11:06;;;;;;;23.25;8.25;;;;;;;7.14;100.00;100774.34;4921046;29;20051;-71
2023/04/22 05:13:32;;;;;;;13.75;8.32;;;;;;;7.18;100.00;100775.75;4920888;29;20054;-71
2023/04/22 05:15:59;;;;;;;19.02;8.63;;;;;;;7.32;100.00;100771.84;4911323;29;20052;-71
2023/04/22 05:18:26;;;;;;;14.68;8.05;;;;;;;7.36;100.00;100767.91;4919812;29;20052;-71
2023/04/22 05:20:52;;;;;;;12.05;7.43;;;;;;;7.42;100.00;100768.22;4920237;29;20063;-71
2023/04/22 05:23:19;;;;;;;20.63;7.80;;;;;;;7.44;100.00;100770.75;4920832;29;20103;-70
2023/04/22 05:25:45;;;;;;;17.67;8.57;;;;;;;7.65;100.00;100767.97;4927796;29;20048;-73
2023/04/22 05:28:12;;;;;;;21.88;8.25;;;;;;;7.76;100.00;100767.81;4931899;29;20082;-73
2023/04/22 05:30:38;;;;;;;14.57;7.82;;;;;;;7.79;100.00;100764.03;4931720;29;20136;-74
2023/04/22 05:33:07;;;;;;;13.82;7.72;;;;;;;7.82;100.00;100774.44;4930999;29;20075;-73
2023/04/22 05:35:34;;;;;;;21.20;8.23;;;;;;;7.78;100.00;100763.19;4930106;29;20112;-74
2023/04/22 05:38:01;;;;;;;14.23;8.13;;;;;;;7.76;100.00;100778.50;4930251;29;20048;-72
2023/04/22 05:40:28;;;;;;;16.80;8.05;;;;;;;7.87;99.47;100769.53;4930534;29;20418;-73
2023/04/22 05:42:56;;;;;;;17.15;8.43;;;;;;;7.97;96.38;100769.53;4930711;29;20052;-74
2023/04/22 05:45:22;;;;;;;19.30;8.20;;;;;;;8.11;95.54;100771.75;4923848;29;20052;-73
2023/04/22 05:47:49;;;;;;;18.83;8.65;;;;;;;8.19;93.98;100777.22;4928977;29;20048;-72
2023/04/22 05:50:15;;;;;;;15.13;8.80;;;;;;;8.38;92.84;100774.53;4929638;29;20044;-73
2023/04/22 05:52:42;;;;;;;17.20;7.97;;;;;;;8.47;91.57;100778.16;4926260;29;20771;-73
2023/04/22 05:55:09;;;;;;;15.50;8.23;;;;;;;8.61;89.49;100783.06;4906482;29;20112;-73
2023/04/22 05:57:35;;;;;;;19.15;8.18;;;;;;;8.90;86.45;100776.72;4924697;29;20053;-73
2023/04/22 06:00:03;;;;;;;23.15;8.68;;;;;;;8.97;85.24;100783.19;4925167;29;20058;-73
2023/04/22 06:02:30;;;;;;;12.48;7.93;;;;;;;9.05;89.96;100780.59;4935834;29;20126;-73
2023/04/22 06:04:56;;;;;;;17.70;8.55;;;;;;;9.28;86.92;100780.22;4931584;29;20127;-73
2023/04/22 06:07:24;;;;;;;24.00;8.52;;;;;;;9.42;86.69;100773.50;4934742;29;20071;-73
2023/04/22 06:09:50;;;;;;;16.52;7.68;;;;;;;9.64;78.04;100775.72;4924732;29;20062;-72
2023/04/22 06:12:29;;;;;;;24.10;12.35;;;;;;;9.84;74.01;100780.94;4923877;29;20052;-70
2023/04/22 06:14:55;;;;;;;23.27;11.75;;;;;;;9.85;72.75;100785.31;4924362;29;20051;-72
2023/04/22 06:17:22;;;;;;;16.45;7.25;;;;;;;10.19;70.09;100780.06;4926282;29;20056;-72
2023/04/22 06:19:48;;;;;;;18.08;7.65;;;;;;;10.09;71.51;100782.00;4923136;29;20068;-71
2023/04/22 06:22:15;;;;;;;17.98;8.43;;;;;;;10.30;71.24;100777.09;4925822;29;20063;-71
2023/04/22 06:24:41;;;;;;;18.73;8.20;;;;;;;10.44;73.77;100786.44;4921290;29;20542;-72
2023/04/22 06:27:08;;;;;;;13.98;8.43;;;;;;;10.50;68.12;100775.94;4926170;29;20111;-72
2023/04/22 06:29:34;;;;;;;15.40;7.78;;;;;;;10.82;67.78;100779.78;4925869;29;20112;-72
2023/04/22 06:32:02;;;;;;;16.42;8.05;;;;;;;10.95;65.16;100782.88;4926454;29;20115;-72
2023/04/22 06:34:28;;;;;;;14.85;8.13;;;;;;;11.02;64.45;100787.63;4926319;29;20064;-71
2023/04/22 06:36:55;;;;;;;20.83;8.35;;;;;;;11.04;63.19;100782.94;4927352;29;20048;-71
2023/04/22 06:39:22;;;;;;;17.50;7.97;;;;;;;11.34;63.16;100776.97;4925989;29;20056;-71
2023/04/22 06:41:49;;;;;;;15.95;8.43;;;;;;;11.45;61.92;100773.16;4924909;29;20054;-72
2023/04/22 06:44:15;;;;;;;13.23;7.55;;;;;;;11.66;59.99;100778.94;4926221;29;20071;-72
2023/04/22 06:46:42;;;;;;;15.30;8.30;;;;;;;11.75;59.53;100771.69;4908952;29;20044;-72
2023/04/22 06:49:08;;;;;;;15.20;8.55;;;;;;;11.95;59.52;100774.06;4924973;29;20131;-72
2023/04/22 06:51:35;;;;;;;12.00;7.28;;;;;;;12.15;59.06;100764.66;4924478;29;20058;-72
2023/04/22 06:54:01;;;;;;;16.63;7.82;;;;;;;12.35;61.29;100771.38;4922820;29;20108;-73
2023/04/22 06:56:28;;;;;;;12.48;7.40;;;;;;;12.58;57.04;100771.47;4922429;29;20052;-73
2023/04/22 06:58:54;;;;;;;14.80;8.18;;;;;;;12.39;57.16;100770.00;4909939;29;20054;-73
2023/04/22 07:01:21;;;;;;;16.30;8.10;;;;;;;12.82;55.85;100762.50;4923050;29;20632;-72
2023/04/22 07:03:47;;;;;;;13.05;7.13;;;;;;;12.88;54.97;100775.28;4923443;29;20072;-72
2023/04/22 07:06:14;;;;;;;15.43;7.57;;;;;;;13.22;54.46;100765.22;4919768;29;20051;-72
2023/04/22 07:08:41;;;;;;;14.35;7.72;;;;;;;12.93;54.52;100763.13;4921540;29;20058;-72
2023/04/22 07:11:09;;;;;;;13.57;7.50;;;;;;;12.41;56.56;100770.66;4921645;29;20054;-72
2023/04/22 07:13:38;;;;;;;23.33;8.38;;;;;;;11.21;59.01;100772.09;4921254;29;20048;-72
2023/04/22 07:16:05;;;;;;;14.82;7.50;;;;;;;11.90;58.44;100777.28;4920089;29;20420;-72
2023/04/22 07:18:31;;;;;;;12.48;7.93;;;;;;;11.69;58.47;100775.91;4920600;29;20083;-72
2023/04/22 07:20:58;;;;;;;18.25;7.95;;;;;;;12.33;57.57;100773.38;4920964;29;20056;-72
2023/04/22 07:23:24;;;;;;;13.32;8.30;;;;;;;12.79;60.08;100770.09;4920632;29;20130;-72
2023/04/22 07:25:51;;;;;;;17.08;8.30;;;;;;;13.24;56.58;100765.84;4922088;29;20056;-72
2023/04/22 07:28:18;;;;;;;14.88;7.07;;;;;;;13.65;53.97;100758.34;4922075;29;20052;-71
2023/04/22 07:30:45;;;;;;;15.50;7.38;;;;;;;13.77;52.38;100767.75;4920732;29;20123;-71
2023/04/22 07:33:11;;;;;;;14.55;7.72;;;;;;;13.49;53.44;100766.53;4920252;29;20130;-72
2023/04/22 07:35:38;;;;;;;17.17;7.25;;;;;;;13.77;56.06;100759.66;4915149;29;20051;-72
2023/04/22 07:38:04;;;;;;;16.23;8.80;;;;;;;13.54;53.35;100765.00;4919680;29;20040;-72
2023/04/22 07:40:33;;;;;;;13.57;7.55;;;;;;;13.44;53.64;100766.25;4919742;29;20080;-71
2023/04/22 07:43:00;;;;;;;16.58;8.80;;;;;;;14.02;52.13;100771.06;4920737;29;20052;-71
2023/04/22 07:45:26;;;;;;;14.70;8.20;;;;;;;14.63;50.19;100756.63;4919722;29;20052;-73
2023/04/22 07:47:53;;;;;;;13.10;7.60;;;;;;;14.81;50.20;100756.28;4919726;29;20100;-72
2023/04/22 07:50:20;;;;;;;16.45;8.02;;;;;;;14.90;50.09;100753.31;4914847;29;20115;-71
2023/04/22 07:52:46;;;;;;;10.63;6.88;;;;;;;14.49;52.04;100742.13;4920482;29;20044;-72
2023/04/22 07:55:12;;;;;;;15.40;7.68;;;;;;;15.07;49.64;100747.72;4919644;29;20043;-72
2023/04/22 07:57:39;;;;;;;15.30;7.50;;;;;;;15.29;48.55;100745.88;4920190;29;20067;-71
2023/04/22 08:00:06;;;;;;;13.48;7.65;;;;;;;15.27;47.81;100737.13;4919099;29;20048;-71
2023/04/22 08:02:33;;;;;;;14.57;7.43;;;;;;;15.58;47.86;100732.28;4920433;29;20048;-72
2023/04/22 08:05:00;;;;;;;12.55;7.38;;;;;;;15.67;47.87;100733.00;4920633;29;20107;-71
2023/04/22 08:07:27;;;;;;;14.10;7.50;;;;;;;15.21;50.90;100723.34;4921108;29;20131;-71
2023/04/22 08:09:59;;;;;;;21.13;7.88;;;;;;;14.47;49.98;100720.72;4921725;29;20040;-71
2023/04/22 08:12:25;;;;;;;13.82;6.80;;;;;;;14.92;48.66;100728.81;4921138;29;20052;-70
2023/04/22 08:14:52;;;;;;;18.40;7.68;;;;;;;15.01;49.14;100724.97;4922055;29;20044;-72
2023/04/22 08:17:20;;;;;;;12.90;6.85;;;;;;;15.13;51.00;100728.88;4922790;29;20112;-71
2023/04/22 08:19:48;;;;;;;14.00;7.63;;;;;;;15.25;48.27;100724.63;4923238;29;20064;-71
2023/04/22 08:22:16;;;;;;;17.05;7.15;;;;;;;15.79;46.89;100722.50;4923715;29;20108;-71
2023/04/22 08:24:43;;;;;;;19.55;7.82;;;;;;;15.27;48.29;100720.91;4923953;29;20062;-70
2023/04/22 08:27:09;;;;;;;18.92;7.55;;;;;;;15.55;47.81;100710.19;4922887;29;20048;-71
2023/04/22 08:29:36;;;;;;;11.75;7.18;;;;;;;15.91;47.21;100718.22;4924405;29;20119;-72
2023/04/22 08:32:03;;;;;;;14.13;7.20;;;;;;;16.24;46.38;100717.66;4922072;29;20048;-71
2023/04/22 08:34:30;;;;;;;14.70;7.45;;;;;;;16.55;45.66;100719.97;4924473;29;20078;-71
2023/04/22 08:36:57;;;;;;;13.77;6.65;;;;;;;16.50;46.16;100723.25;4927150;29;20124;-72
2023/04/22 08:39:23;;;;;;;17.33;7.10;;;;;;;16.99;44.78;100714.16;4927912;29;20103;-71
2023/04/22 08:41:50;;;;;;;11.93;6.90;;;;;;;15.53;46.43;100718.47;4928236;29;20111;-71
2023/04/22 08:44:18;;;;;;;15.45;7.30;;;;;;;15.99;47.94;100715.41;4925619;29;20048;-72
2023/04/22 08:46:47;;;;;;;13.30;6.80;;;;;;;16.14;48.14;100718.84;4925399;29;20143;-71
2023/04/22 08:49:15;;;;;;;13.57;7.00;;;;;;;16.47;46.29;100718.22;4927049;29;20083;-72
2023/04/22 08:51:42;;;;;;;14.30;6.63;;;;;;;16.96;47.40;100717.25;4928191;29;20138;-70
2023/04/22 08:54:10;;;;;;;14.50;6.85;;;;;;;17.92;44.36;100711.59;4929005;29;20115;-71
2023/04/22 08:56:41;;;;;;;16.13;6.57;;;;;;;17.17;44.22;100710.03;4923945;29;20063;-72
2023/04/22 08:59:10;;;;;;;11.93;7.28;;;;;;;18.02;43.30;100701.16;4926465;29;20044;-72
2023/04/22 09:01:40;;;;;;;12.30;6.57;;;;;;;18.15;42.57;100703.06;4926455;29;20056;-72
2023/04/22 09:04:09;;;;;;;16.30;6.80;;;;;;;18.20;43.69;100695.13;4925625;29;20048;-72
2023/04/22 09:06:37;;;;;;;10.63;7.05;;;;;;;18.71;42.32;100707.13;4923784;29;20056;-72
2023/04/22 09:09:04;;;;;;;14.40;6.15;;;;;;;18.94;42.48;100699.31;4928050;29;20059;-71
2023/04/22 09:11:32;;;;;;;13.48;6.25;;;;;;;18.64;40.73;100701.69;4925750;29;20074;-73
2023/04/22 09:13:58;;;;;;;15.50;6.53;;;;;;;18.95;41.09;100694.72;4924977;29;20052;-72
2023/04/22 09:16:25;;;;;;;12.25;5.93;;;;;;;18.15;41.30;100686.78;4923632;29;20048;-72
2023/04/22 09:18:51;;;;;;;15.82;6.30;;;;;;;18.47;41.98;100684.19;4923908;29;20052;-72
2023/04/22 09:21:18;;;;;;;15.25;6.22;;;;;;;19.45;40.57;100687.53;4915181;29;20052;-73
2023/04/22 09:23:53;;;;;;;11.38;5.95;;;;;;;18.86;41.54;100680.53;4922037;29;20058;-73
2023/04/22 09:26:22;;;;;;;9.98;5.90;;;;;;;19.58;39.95;100677.59;4922782;29;20135;-72
2023/04/22 09:28:55;;;;;;;18.27;5.70;;;;;;;20.00;39.62;100680.63;4925398;29;20052;-73
2023/04/22 09:31:22;;;;;;;14.65;5.90;;;;;;;20.01;39.07;100671.41;4924869;29;20054;-74
2023/04/22 09:33:57;;;;;;;15.70;5.85;;;;;;;20.47;38.30;100672.84;4925343;29;20473;-73
2023/04/22 09:36:28;;;;;;;10.68;5.07;;;;;;;18.15;39.64;100672.38;4925035;29;20052;-73
2023/04/22 09:39:00;;;;;;;11.32;5.10;;;;;;;19.17;40.90;100668.88;4924010;29;20420;-72
2023/04/22 09:41:32;;;;;;;8.57;5.45;;;;;;;20.06;38.54;100664.22;4914298;29;20497;-72
2023/04/22 09:44:01;;;;;;;12.05;5.53;;;;;;;19.96;38.51;100663.88;4921257;29;20059;-72
2023/04/22 09:46:30;;;;;;;13.55;5.15;;;;;;;20.64;37.23;100669.28;4920599;29;20048;-74
2023/04/22 09:48:58;;;;;;;13.50;4.55;;;;;;;20.86;36.86;100658.72;4921697;29;20092;-74
2023/04/22 09:51:27;;;;;;;12.00;5.07;;;;;;;20.82;36.82;100653.94;4914892;29;20583;-74
2023/04/22 09:54:05;;;;;;;9.05;5.20;;;;;;;21.57;36.15;100648.06;4914887;29;20116;-73
2023/04/22 09:56:48;;;;;;;7.82;4.55;;;;;;;20.82;35.17;100651.22;4910680;29;20108;-72
2023/04/22 09:59:26;;;;;;;7.43;4.53;;;;;;;18.63;39.14;100651.13;4909565;29;20108;-72
2023/04/22 10:02:05;;;;;;;16.05;5.80;;;;;;;20.07;36.85;100640.53;4906749;29;20044;-73
2023/04/22 10:04:33;;;;;;;8.70;4.78;;;;;;;20.29;36.12;100633.59;4908340;29;20062;-73
2023/04/22 10:07:01;;;;;;;9.23;4.40;;;;;;;21.33;35.57;100631.63;4909001;29;20112;-73
2023/04/22 10:09:28;;;;;;;12.02;4.72;;;;;;;20.18;38.48;100634.38;4907668;29;20541;-72
2023/04/22 10:11:58;;;;;;;9.90;5.00;;;;;;;21.31;35.44;100632.94;4907877;29;20048;-73
2023/04/22 10:14:25;;;;;;;11.40;5.55;;;;;;;21.99;34.60;100629.69;4903080;29;20113;-72
2023/04/22 10:17:01;;;;;;;9.52;5.30;;;;;;;21.99;34.18;100612.50;4903298;29;20139;-74
2023/04/22 10:19:32;;;;;;;10.43;4.25;;;;;;;21.35;33.99;100628.66;4903331;29;20044;-73
2023/04/22 10:22:02;;;;;;;9.15;5.32;;;;;;;20.98;34.65;100612.41;4903671;29;20108;-73
2023/04/22 10:24:35;;;;;;;11.20;5.05;;;;;;;21.07;35.48;100604.72;4903982;29;20080;-73
2023/04/22 10:27:09;;;;;;;12.10;4.75;;;;;;;19.38;37.04;100602.41;4899956;29;20051;-73
2023/04/22 10:29:38;;;;;;;11.85;5.20;;;;;;;19.20;37.32;100607.75;4907219;29;20048;-73
2023/04/22 10:32:24;;;;;;;12.35;4.82;;;;;;;20.62;36.04;100599.69;4907017;29;20056;-72
2023/04/22 10:35:07;;;;;;;11.23;4.82;;;;;;;20.85;35.82;100583.44;4899510;29;20052;-72
2023/04/22 10:37:34;;;;;;;12.52;4.53;;;;;;;20.50;34.50;100590.63;4908839;29;20056;-72
2023/04/22 10:40:09;;;;;;;13.60;4.88;;;;;;;21.29;33.52;100591.41;4914541;29;20060;-72
2023/04/22 10:42:39;;;;;;;11.30;5.13;;;;;;;20.97;33.28;100594.38;4894424;29;20113;-71
2023/04/22 10:45:06;;;;;;;11.38;4.63;;;;;;;20.76;33.72;100581.25;4895870;29;20051;-71
2023/04/22 10:47:35;;;;;;;12.80;4.55;;;;;;;21.19;31.86;100586.53;4894379;29;20068;-72
2023/04/22 10:50:17;;;;;;;8.32;4.75;;;;;;;20.50;33.59;100588.75;4890581;29;20057;-71
2023/04/22 10:53:02;;;;;;;9.85;4.10;;;;;;;19.14;37.82;100586.88;4906172;29;20132;-72
2023/04/22 10:55:49;;;;;;;18.67;5.03;;;;;;;18.96;36.32;100569.44;4910776;29;20061;-73
2023/04/22 10:58:20;;;;;;;10.52;4.50;;;;;;;19.30;34.60;100571.91;4892290;29;20064;-71
2023/04/22 11:00:52;;;;;;;10.15;4.57;;;;;;;19.13;35.54;100571.63;4905033;29;20143;-72
2023/04/22 11:03:26;;;;;;;11.68;4.65;;;;;;;18.58;35.98;100579.47;4922754;29;20051;-71
2023/04/22 11:06:16;;;;;;;13.23;4.78;;;;;;;18.11;36.95;100573.38;4926337;29;20052;-71
2023/04/22 11:08:47;;;;;;;19.08;5.05;;;;;;;18.34;38.16;100568.28;4927815;29;20052;-72
2023/04/22 11:11:16;;;;;;;10.83;4.87;;;;;;;19.23;37.00;100566.53;4928365;29;20052;-72
2023/04/22 11:13:43;;;;;;;9.88;4.70;;;;;;;18.92;36.33;100568.22;4930632;29;20357;-74
2023/04/22 11:16:10;;;;;;;12.63;5.13;;;;;;;19.46;35.62;100558.59;4929220;29;20048;-71
2023/04/22 11:18:37;;;;;;;17.63;5.68;;;;;;;19.54;35.84;100557.47;4915103;29;20058;-73
2023/04/22 11:21:07;;;;;;;9.48;4.85;;;;;;;19.72;34.65;100553.97;4931769;29;20117;-72
2023/04/22 11:23:35;;;;;;;14.02;4.75;;;;;;;19.58;34.51;100555.97;4929961;29;20044;-72
2023/04/22 11:26:04;;;;;;;14.20;5.07;;;;;;;18.98;34.44;100553.75;4924698;29;20040;-71